createdAt,value
2018-12-06T00:02:10.933Z,5.70
2018-12-06T00:04:40.097Z,4.13
2018-12-06T00:07:09.242Z,2.97
2018-12-06T00:09:38.388Z,3.90
2018-12-06T00:12:07.499Z,3.57
2018-12-06T00:14:36.657Z,3.30
2018-12-06T00:17:06.150Z,5.17
2018-12-06T00:19:35.305Z,4.80
2018-12-06T00:22:04.428Z,5.20
2018-12-06T00:24:33.583Z,3.30
2018-12-06T00:27:02.931Z,4.53
2018-12-06T00:29:32.113Z,6.30
2018-12-06T00:32:01.232Z,5.43
2018-12-06T00:34:30.367Z,3.67
2018-12-06T00:36:59.504Z,3.83
2018-12-06T00:39:28.657Z,3.73
2018-12-06T00:41:57.859Z,4.80
2018-12-06T00:44:27.047Z,4.73
2018-12-06T00:46:56.191Z,4.40
2018-12-06T00:49:25.364Z,3.13
2018-12-06T00:51:54.472Z,5.83
2018-12-06T00:54:23.582Z,3.70
2018-12-06T00:56:52.714Z,5.27
2018-12-06T00:59:21.886Z,4.83
2018-12-06T01:01:50.971Z,3.47
2018-12-06T01:04:20.135Z,6.00
2018-12-06T01:06:49.280Z,4.53
2018-12-06T01:09:18.461Z,5.00
2018-12-06T01:11:47.605Z,3.13
2018-12-06T01:14:16.755Z,4.37
2018-12-06T01:16:45.886Z,4.00
2018-12-06T01:19:15.070Z,5.07
2018-12-06T01:21:44.203Z,3.33
2018-12-06T01:24:13.366Z,3.47
2018-12-06T01:26:42.475Z,6.40
2018-12-06T01:29:11.635Z,4.17
2018-12-06T01:31:40.876Z,4.70
2018-12-06T01:34:10.043Z,4.07
2018-12-06T01:36:39.193Z,3.90
2018-12-06T01:39:08.352Z,4.03
2018-12-06T01:41:37.472Z,4.23
2018-12-06T01:44:06.624Z,3.27
2018-12-06T01:46:35.777Z,3.97
2018-12-06T01:49:04.921Z,4.23
2018-12-06T01:51:34.082Z,4.13
2018-12-06T01:54:03.244Z,4.40
2018-12-06T01:56:32.412Z,4.17
2018-12-06T01:59:01.556Z,5.60
2018-12-06T02:01:30.768Z,3.80
2018-12-06T02:03:59.909Z,3.60
2018-12-06T02:06:29.193Z,3.97
2018-12-06T02:08:58.342Z,5.00
2018-12-06T02:11:27.502Z,4.60
2018-12-06T02:13:56.652Z,4.27
2018-12-06T02:16:25.813Z,4.20
2018-12-06T02:18:54.959Z,3.57
2018-12-06T02:21:24.119Z,7.63
2018-12-06T02:23:53.255Z,4.00
2018-12-06T02:26:22.415Z,6.57
2018-12-06T02:28:51.565Z,5.47
2018-12-06T02:31:20.720Z,4.87
2018-12-06T02:33:49.854Z,6.67
2018-12-06T02:36:19.031Z,7.73
2018-12-06T02:38:48.139Z,6.13
2018-12-06T02:41:17.299Z,5.03
2018-12-06T02:43:46.463Z,4.77
2018-12-06T02:46:15.653Z,5.03
2018-12-06T02:48:44.777Z,3.93
2018-12-06T02:51:13.947Z,5.53
2018-12-06T02:53:43.069Z,4.20
2018-12-06T02:56:12.245Z,3.97
2018-12-06T02:58:41.406Z,6.13
2018-12-06T03:01:10.675Z,5.10
2018-12-06T03:03:39.796Z,4.93
2018-12-06T03:06:08.949Z,7.33
2018-12-06T03:08:38.073Z,8.47
2018-12-06T03:11:07.233Z,5.90
2018-12-06T03:13:36.392Z,6.17
2018-12-06T03:16:05.581Z,5.33
2018-12-06T03:18:34.740Z,5.53
2018-12-06T03:21:03.905Z,4.97
2018-12-06T03:23:33.049Z,6.40
2018-12-06T03:26:02.186Z,5.37
2018-12-06T03:28:31.343Z,6.17
2018-12-06T03:31:00.513Z,5.37
2018-12-06T03:33:29.658Z,5.10
2018-12-06T03:35:58.829Z,7.23
2018-12-06T03:38:28.062Z,6.37
2018-12-06T03:40:57.255Z,7.13
2018-12-06T03:43:26.554Z,6.43
2018-12-06T03:45:55.719Z,7.07
2018-12-06T03:48:24.854Z,7.87
2018-12-06T03:50:54.047Z,5.90
2018-12-06T03:53:23.192Z,4.80
2018-12-06T03:55:52.400Z,6.43
2018-12-06T03:58:21.540Z,6.57
2018-12-06T04:00:50.698Z,5.17
2018-12-06T04:03:19.831Z,6.47
2018-12-06T04:05:48.984Z,6.20
2018-12-06T04:08:18.106Z,5.57
2018-12-06T04:10:47.228Z,5.27
2018-12-06T04:13:16.427Z,6.27
2018-12-06T04:15:45.574Z,6.87
2018-12-06T04:18:14.751Z,6.10
2018-12-06T04:20:43.864Z,4.90
2018-12-06T04:23:13.033Z,4.97
2018-12-06T04:25:42.169Z,7.07
2018-12-06T04:28:11.348Z,6.57
2018-12-06T04:30:40.467Z,5.40
2018-12-06T04:33:09.636Z,5.33
2018-12-06T04:35:38.825Z,5.03
2018-12-06T04:38:08.006Z,5.10
2018-12-06T04:40:37.128Z,6.57
2018-12-06T04:43:06.302Z,5.40
2018-12-06T04:45:35.443Z,4.83
2018-12-06T04:48:04.577Z,4.77
2018-12-06T04:50:33.714Z,5.77
2018-12-06T04:53:02.878Z,6.43
2018-12-06T04:55:32.060Z,6.17
2018-12-06T04:58:01.220Z,6.53
2018-12-06T05:00:30.342Z,5.53
2018-12-06T05:02:59.516Z,6.70
2018-12-06T05:05:28.658Z,5.30
2018-12-06T05:07:57.811Z,6.23
2018-12-06T05:10:26.929Z,6.07
2018-12-06T05:12:56.083Z,5.80
2018-12-06T05:15:25.346Z,8.37
2018-12-06T05:17:54.506Z,6.37
2018-12-06T05:20:23.638Z,6.40
2018-12-06T05:22:52.797Z,6.83
2018-12-06T05:25:21.924Z,7.20
2018-12-06T05:27:51.092Z,5.23
2018-12-06T05:30:20.216Z,5.53
2018-12-06T05:32:49.371Z,5.87
2018-12-06T05:35:18.483Z,5.07
2018-12-06T05:37:47.646Z,6.33
2018-12-06T05:40:16.788Z,7.57
2018-12-06T05:42:45.946Z,6.30
2018-12-06T05:45:15.085Z,6.47
2018-12-06T05:47:44.411Z,6.17
2018-12-06T05:50:13.548Z,6.57
2018-12-06T05:52:42.796Z,6.03
2018-12-06T05:55:12.044Z,6.87
2018-12-06T05:57:41.198Z,6.50
2018-12-06T06:00:10.343Z,6.53
2018-12-06T06:02:39.540Z,6.30
2018-12-06T06:05:08.730Z,6.07
2018-12-06T06:07:37.894Z,5.93
2018-12-06T06:10:07.093Z,7.33
2018-12-06T06:12:36.245Z,5.90
2018-12-06T06:15:05.401Z,6.53
2018-12-06T06:17:34.555Z,6.10
2018-12-06T06:20:03.691Z,5.53
2018-12-06T06:22:32.857Z,5.53
2018-12-06T06:25:01.987Z,8.67
2018-12-06T06:27:31.134Z,6.30
2018-12-06T06:30:00.314Z,6.00
2018-12-06T06:32:29.475Z,6.80
2018-12-06T06:34:58.616Z,6.53
2018-12-06T06:37:27.784Z,6.43
2018-12-06T06:39:56.938Z,6.23
2018-12-06T06:42:26.109Z,8.53
2018-12-06T06:44:55.235Z,5.77
2018-12-06T06:47:24.364Z,6.00
2018-12-06T06:49:53.540Z,6.77
2018-12-06T06:52:22.690Z,6.33
2018-12-06T06:54:51.906Z,6.90
2018-12-06T06:57:21.051Z,5.83
2018-12-06T06:59:50.213Z,6.60
2018-12-06T07:02:19.368Z,5.53
2018-12-06T07:04:48.544Z,6.33
2018-12-06T07:07:17.720Z,6.90
2018-12-06T07:09:46.888Z,5.90
2018-12-06T07:12:16.044Z,7.17
2018-12-06T07:14:45.224Z,6.17
2018-12-06T07:17:14.355Z,5.67
2018-12-06T07:19:43.525Z,6.67
2018-12-06T07:22:12.664Z,8.53
2018-12-06T07:24:41.829Z,5.97
2018-12-06T07:27:10.984Z,6.53
2018-12-06T07:29:40.228Z,6.00
2018-12-06T07:32:09.367Z,6.97
2018-12-06T07:34:38.524Z,5.53
2018-12-06T07:37:07.675Z,6.13
2018-12-06T07:39:36.843Z,5.90
2018-12-06T07:42:06.001Z,7.13
2018-12-06T07:44:35.188Z,5.87
2018-12-06T07:47:04.315Z,8.80
2018-12-06T07:49:33.467Z,6.20
2018-12-06T07:52:02.620Z,8.30
2018-12-06T07:54:31.788Z,7.27
2018-12-06T07:57:00.906Z,6.50
2018-12-06T07:59:30.082Z,7.17
2018-12-06T08:01:59.215Z,6.60
2018-12-06T08:04:28.379Z,6.23
2018-12-06T08:06:57.500Z,10.37
2018-12-06T08:09:26.658Z,8.57
2018-12-06T08:11:55.784Z,6.50
2018-12-06T08:14:24.930Z,8.43
2018-12-06T08:16:54.082Z,7.70
2018-12-06T08:19:23.245Z,8.90
2018-12-06T08:21:52.381Z,7.27
2018-12-06T08:24:21.559Z,7.57
2018-12-06T08:26:50.678Z,10.13
2018-12-06T08:29:20.586Z,8.30
2018-12-06T08:31:49.929Z,9.73
2018-12-06T08:34:19.249Z,6.83
2018-12-06T08:36:48.378Z,7.27
2018-12-06T08:39:17.602Z,8.23
2018-12-06T08:41:46.709Z,6.30
2018-12-06T08:44:21.237Z,6.20
2018-12-06T08:46:47.066Z,6.40
2018-12-06T08:49:16.345Z,5.63
2018-12-06T08:51:45.486Z,6.13
2018-12-06T08:54:14.667Z,6.87
2018-12-06T08:56:43.827Z,7.13
2018-12-06T08:59:13.000Z,6.57
2018-12-06T09:01:42.208Z,7.63
2018-12-06T09:04:11.418Z,5.83
2018-12-06T09:06:41.269Z,5.70
2018-12-06T09:09:10.403Z,5.10
2018-12-06T09:11:39.595Z,6.73
2018-12-06T09:14:08.788Z,6.00
2018-12-06T09:16:37.943Z,7.03
2018-12-06T09:19:07.123Z,5.53
2018-12-06T09:21:36.157Z,7.47
2018-12-06T09:24:05.340Z,7.00
2018-12-06T09:26:34.348Z,7.57
2018-12-06T09:29:04.722Z,5.97
2018-12-06T09:31:33.858Z,5.97
2018-12-06T09:34:05.701Z,7.13
2018-12-06T09:36:34.903Z,7.10
2018-12-06T09:39:06.209Z,6.20
2018-12-06T09:41:35.412Z,8.37
2018-12-06T09:44:04.777Z,6.97
2018-12-06T09:46:34.750Z,6.93
2018-12-06T09:49:05.432Z,7.63
2018-12-06T09:51:34.760Z,6.47
2018-12-06T09:54:03.938Z,6.97
2018-12-06T09:56:33.125Z,7.60
2018-12-06T09:59:02.254Z,7.07
2018-12-06T10:01:31.509Z,6.27
2018-12-06T10:04:00.534Z,6.90
2018-12-06T10:06:29.682Z,7.10
2018-12-06T10:08:58.831Z,6.80
2018-12-06T10:11:27.889Z,5.73
2018-12-06T10:13:57.007Z,6.63
2018-12-06T10:16:26.176Z,6.27
2018-12-06T10:18:55.381Z,7.03
2018-12-06T10:21:24.414Z,6.77
2018-12-06T10:23:53.550Z,7.00
2018-12-06T10:26:22.752Z,5.70
2018-12-06T10:28:51.965Z,7.67
2018-12-06T10:31:21.185Z,7.10
2018-12-06T10:33:50.318Z,6.33
2018-12-06T10:36:19.477Z,6.37
2018-12-06T10:38:48.677Z,6.20
2018-12-06T10:41:17.837Z,7.07
2018-12-06T10:43:46.945Z,7.27
2018-12-06T10:46:16.135Z,6.77
2018-12-06T10:48:45.282Z,8.30
2018-12-06T10:51:48.268Z,7.90
2018-12-06T10:54:17.426Z,6.90
2018-12-06T10:56:46.614Z,8.10
2018-12-06T10:59:15.748Z,6.63
2018-12-06T11:01:49.979Z,7.23
2018-12-06T11:04:19.143Z,7.67
2018-12-06T11:06:48.313Z,7.70
2018-12-06T11:09:17.434Z,8.30
2018-12-06T11:11:46.622Z,6.87
2018-12-06T11:14:15.780Z,6.87
2018-12-06T11:16:44.883Z,8.90
2018-12-06T11:19:14.015Z,5.93
2018-12-06T11:21:43.184Z,6.03
2018-12-06T11:24:12.363Z,7.50
2018-12-06T11:26:41.527Z,6.47
2018-12-06T11:29:10.759Z,6.50
2018-12-06T11:31:40.004Z,8.00
2018-12-06T11:34:09.298Z,6.03
2018-12-06T11:36:38.505Z,6.30
2018-12-06T11:39:09.176Z,8.23
2018-12-06T11:41:43.054Z,6.47
2018-12-06T11:44:09.553Z,5.53
2018-12-06T11:46:38.733Z,6.03
2018-12-06T11:49:07.922Z,6.43
2018-12-06T11:51:37.087Z,7.70
2018-12-06T11:54:06.272Z,5.83
2018-12-06T11:56:35.460Z,6.23
2018-12-06T11:59:04.612Z,7.80
2018-12-06T12:01:33.733Z,5.93
2018-12-06T12:04:02.894Z,6.07
2018-12-06T12:06:31.950Z,5.80
2018-12-06T12:09:01.126Z,6.17
2018-12-06T12:11:30.246Z,5.63
2018-12-06T12:13:59.410Z,6.03
2018-12-06T12:16:28.532Z,6.17
2018-12-06T12:18:57.705Z,5.87
2018-12-06T12:21:26.924Z,5.60
2018-12-06T12:23:56.178Z,6.17
2018-12-06T12:26:25.320Z,5.47
2018-12-06T12:29:41.976Z,6.53
2018-12-06T12:32:11.138Z,6.23
2018-12-06T12:34:40.292Z,7.03
2018-12-06T12:37:09.461Z,5.70
2018-12-06T12:39:38.607Z,5.17
2018-12-06T12:42:07.727Z,6.23
2018-12-06T12:44:37.027Z,4.43
2018-12-06T12:47:06.637Z,6.40
2018-12-06T12:49:35.769Z,5.90
2018-12-06T12:52:04.961Z,5.40
2018-12-06T12:54:34.094Z,9.43
2018-12-06T12:57:03.269Z,5.53
2018-12-06T12:59:32.409Z,5.03
2018-12-06T13:02:01.594Z,5.90
2018-12-06T13:04:30.713Z,7.60
2018-12-06T13:07:11.889Z,5.33
2018-12-06T13:09:41.079Z,5.33
2018-12-06T13:12:10.204Z,5.13
2018-12-06T13:14:39.261Z,4.47
2018-12-06T13:17:08.454Z,3.47
2018-12-06T13:19:37.477Z,5.57
2018-12-06T13:22:06.665Z,6.73
2018-12-06T13:24:35.683Z,4.93
2018-12-06T13:27:04.881Z,4.00
2018-12-06T13:29:34.012Z,4.87
2018-12-06T13:32:03.194Z,4.67
2018-12-06T13:34:32.319Z,4.87
2018-12-06T13:37:01.491Z,5.03
2018-12-06T13:39:30.621Z,4.27
2018-12-06T13:41:59.813Z,4.30
2018-12-06T13:44:28.882Z,4.37
2018-12-06T13:46:58.042Z,5.87
2018-12-06T13:49:27.183Z,4.03
2018-12-06T13:51:56.413Z,4.03
2018-12-06T13:54:27.128Z,3.83
2018-12-06T13:56:56.581Z,4.50
2018-12-06T13:59:25.698Z,3.97
2018-12-06T14:01:54.858Z,3.63
2018-12-06T14:04:24.031Z,4.10
2018-12-06T14:06:53.199Z,3.37
2018-12-06T14:09:22.375Z,4.03
2018-12-06T14:11:51.385Z,4.57
2018-12-06T14:14:20.576Z,4.30
2018-12-06T14:16:49.684Z,5.07
2018-12-06T14:19:18.848Z,3.73
2018-12-06T14:21:48.009Z,4.23
2018-12-06T14:24:17.177Z,3.97
2018-12-06T14:26:46.376Z,3.70
2018-12-06T14:29:15.607Z,3.57
2018-12-06T14:31:45.067Z,3.90
2018-12-06T14:34:14.130Z,4.50
2018-12-06T14:36:43.259Z,3.43
2018-12-06T14:39:12.435Z,3.87
2018-12-06T14:41:41.448Z,3.70
2018-12-06T14:44:20.817Z,3.67
2018-12-06T14:46:49.935Z,3.27
2018-12-06T14:49:19.131Z,2.93
2018-12-06T14:51:48.280Z,2.93
2018-12-06T14:54:17.463Z,3.20
2018-12-06T14:56:46.584Z,3.57
2018-12-06T14:59:15.745Z,3.50
2018-12-06T15:01:44.871Z,3.20
2018-12-06T15:04:14.084Z,2.73
2018-12-06T15:06:43.223Z,2.90
2018-12-06T15:09:12.484Z,2.30
2018-12-06T15:11:43.164Z,2.17
2018-12-06T15:14:12.423Z,3.43
2018-12-06T15:16:41.590Z,2.50
2018-12-06T15:19:10.897Z,2.97
2018-12-06T15:21:40.048Z,2.70
2018-12-06T15:24:09.180Z,2.63
2018-12-06T15:26:38.525Z,2.57
2018-12-06T15:29:07.574Z,1.90
2018-12-06T15:31:36.719Z,2.53
2018-12-06T15:34:06.326Z,1.80
2018-12-06T15:36:35.456Z,2.50
2018-12-06T15:39:07.776Z,2.27
2018-12-06T15:41:36.916Z,2.40
2018-12-06T15:44:06.095Z,1.97
2018-12-06T15:46:35.085Z,2.50
2018-12-06T15:49:04.271Z,1.93
2018-12-06T15:51:33.449Z,2.40
2018-12-06T15:54:03.742Z,2.30
2018-12-06T15:56:32.893Z,2.23
2018-12-06T15:59:02.062Z,2.40
2018-12-06T16:01:31.077Z,3.60
2018-12-06T16:04:00.247Z,2.03
2018-12-06T16:06:29.402Z,2.70
2018-12-06T16:08:58.599Z,2.43
2018-12-06T16:11:27.769Z,2.20
2018-12-06T16:13:56.999Z,2.83
2018-12-06T16:16:26.096Z,2.60
2018-12-06T16:18:55.357Z,3.10
2018-12-06T16:21:24.474Z,2.83
2018-12-06T16:23:53.647Z,3.43
2018-12-06T16:26:22.788Z,2.60
2018-12-06T16:28:51.967Z,2.90
2018-12-06T16:31:21.092Z,2.57
2018-12-06T16:33:50.253Z,3.40
2018-12-06T16:36:19.373Z,3.00
2018-12-06T16:38:48.558Z,2.97
2018-12-06T16:41:17.696Z,3.73
2018-12-06T16:43:46.765Z,4.10
2018-12-06T16:46:15.890Z,2.53
2018-12-06T16:48:45.134Z,2.67
2018-12-06T16:51:14.259Z,3.87
2018-12-06T16:53:43.489Z,3.20
2018-12-06T16:56:12.600Z,3.63
2018-12-06T16:58:41.771Z,2.77
2018-12-06T17:01:10.906Z,3.40
2018-12-06T17:03:40.115Z,2.80
2018-12-06T17:06:09.392Z,3.43
2018-12-06T17:08:38.549Z,3.10
2018-12-06T17:11:07.943Z,3.10
2018-12-06T17:13:37.090Z,3.57
2018-12-06T17:16:06.223Z,3.27
2018-12-06T17:18:35.600Z,4.37
2018-12-06T17:21:04.831Z,3.03
2018-12-06T17:23:34.674Z,4.93
2018-12-06T17:26:04.206Z,3.33
2018-12-06T17:28:33.425Z,4.77
2018-12-06T17:31:03.743Z,4.20
2018-12-06T17:33:32.916Z,3.90
2018-12-06T17:36:02.261Z,4.43
2018-12-06T17:38:31.395Z,4.57
2018-12-06T17:41:02.450Z,4.77
2018-12-06T17:43:31.609Z,4.50
2018-12-06T17:46:00.764Z,4.00
2018-12-06T17:48:29.913Z,3.87
2018-12-06T17:50:59.062Z,4.57
2018-12-06T17:53:28.337Z,5.13
2018-12-06T17:55:57.614Z,4.97
2018-12-06T17:58:26.920Z,4.10
2018-12-06T18:00:56.121Z,4.37
2018-12-06T18:03:25.422Z,4.20
2018-12-06T18:05:54.663Z,4.30
2018-12-06T18:08:23.820Z,5.47
2018-12-06T18:10:53.325Z,4.73
2018-12-06T18:13:22.527Z,4.60
2018-12-06T18:15:51.973Z,4.50
2018-12-06T18:18:21.238Z,3.33
2018-12-06T18:20:50.509Z,4.13
2018-12-06T18:23:19.672Z,3.47
2018-12-06T18:25:48.837Z,4.67
2018-12-06T18:28:17.949Z,4.23
2018-12-06T18:30:47.177Z,4.87
2018-12-06T18:33:16.419Z,5.40
2018-12-06T18:35:45.654Z,4.53
2018-12-06T18:38:14.769Z,5.07
2018-12-06T18:40:43.937Z,4.87
2018-12-06T18:43:12.932Z,4.80
2018-12-06T18:45:42.139Z,5.47
2018-12-06T18:48:11.311Z,4.83
2018-12-06T18:50:40.492Z,6.70
2018-12-06T18:53:10.337Z,4.60
2018-12-06T18:55:39.543Z,4.40
2018-12-06T18:58:09.236Z,3.90
2018-12-06T19:00:38.499Z,4.60
2018-12-06T19:03:07.627Z,5.17
2018-12-06T19:05:36.821Z,4.07
2018-12-06T19:08:05.974Z,6.57
2018-12-06T19:10:35.158Z,5.77
2018-12-06T19:13:04.548Z,5.00
2018-12-06T19:15:33.800Z,4.47
2018-12-06T19:18:02.944Z,5.20
2018-12-06T19:20:32.110Z,7.20
2018-12-06T19:23:01.247Z,5.17
2018-12-06T19:25:30.473Z,5.07
2018-12-06T19:27:59.854Z,4.60
2018-12-06T19:30:29.130Z,4.80
2018-12-06T19:33:03.153Z,5.23
2018-12-06T19:35:30.084Z,4.77
2018-12-06T19:37:59.288Z,4.20
2018-12-06T19:40:28.612Z,4.80
2018-12-06T19:42:57.953Z,7.27
2018-12-06T19:45:27.071Z,5.27
2018-12-06T19:47:56.283Z,4.47
2018-12-06T19:50:25.653Z,6.20
2018-12-06T19:52:55.056Z,4.90
2018-12-06T19:55:24.209Z,5.30
2018-12-06T19:57:53.385Z,5.23
2018-12-06T20:00:22.575Z,5.10
2018-12-06T20:02:51.947Z,6.67
2018-12-06T20:05:21.153Z,5.13
2018-12-06T20:07:50.345Z,4.30
2018-12-06T20:10:19.516Z,7.27
2018-12-06T20:12:48.709Z,4.77
2018-12-06T20:15:17.831Z,5.50
2018-12-06T20:17:47.016Z,7.30
2018-12-06T20:20:23.311Z,6.20
2018-12-06T20:22:47.374Z,4.70
2018-12-06T20:25:16.545Z,4.43
2018-12-06T20:27:45.737Z,4.77
2018-12-06T20:30:14.885Z,5.37
2018-12-06T20:32:44.070Z,5.10
2018-12-06T20:35:13.226Z,4.60
2018-12-06T20:37:42.452Z,5.27
2018-12-06T20:40:12.790Z,5.23
2018-12-06T20:42:42.171Z,5.37
2018-12-06T20:45:11.397Z,4.53
2018-12-06T20:47:40.605Z,5.83
2018-12-06T20:50:09.791Z,4.73
2018-12-06T20:52:39.060Z,4.67
2018-12-06T20:55:08.237Z,4.77
2018-12-06T20:57:37.719Z,4.97
2018-12-06T21:00:07.366Z,5.03
2018-12-06T21:02:36.666Z,4.40
2018-12-06T21:05:05.811Z,4.53
2018-12-06T21:07:34.995Z,4.07
2018-12-06T21:10:04.134Z,4.30
2018-12-06T21:12:33.318Z,4.57
2018-12-06T21:15:02.455Z,3.73
2018-12-06T21:17:31.655Z,4.00
2018-12-06T21:20:00.795Z,3.50
2018-12-06T21:22:29.966Z,3.20
2018-12-06T21:24:59.105Z,4.67
2018-12-06T21:27:28.278Z,3.83
2018-12-06T21:29:57.414Z,4.37
2018-12-06T21:32:26.589Z,4.10
2018-12-06T21:34:56.785Z,4.40
2018-12-06T21:37:25.959Z,4.23
2018-12-06T21:39:55.103Z,4.43
2018-12-06T21:42:24.282Z,4.23
2018-12-06T21:44:53.416Z,3.70
2018-12-06T21:47:27.081Z,4.83
2018-12-06T21:49:56.530Z,6.63
2018-12-06T21:52:25.751Z,5.17
2018-12-06T21:54:54.911Z,3.93
2018-12-06T21:57:24.081Z,3.43
2018-12-06T21:59:53.260Z,3.43
2018-12-06T22:02:25.675Z,4.00
2018-12-06T22:04:54.865Z,5.00
2018-12-06T22:07:24.061Z,3.50
2018-12-06T22:09:53.227Z,3.30
2018-12-06T22:12:22.480Z,3.13
2018-12-06T22:14:51.751Z,3.20
2018-12-06T22:17:20.967Z,3.10
2018-12-06T22:19:50.115Z,3.27
2018-12-06T22:22:19.297Z,3.00
2018-12-06T22:24:48.462Z,2.43
2018-12-06T22:27:17.677Z,2.53
2018-12-06T22:29:46.826Z,2.93
2018-12-06T22:32:16.025Z,2.90
2018-12-06T22:34:45.185Z,2.50
2018-12-06T22:37:14.418Z,3.67
2018-12-06T22:39:43.567Z,2.50
2018-12-06T22:42:12.764Z,2.30
2018-12-06T22:44:41.938Z,2.33
2018-12-06T22:47:11.112Z,2.37
2018-12-06T22:49:40.260Z,2.07
2018-12-06T22:52:09.467Z,2.00
2018-12-06T22:54:38.643Z,2.37
2018-12-06T22:57:07.832Z,2.50
2018-12-06T22:59:36.961Z,2.10
2018-12-06T23:02:06.122Z,2.10
2018-12-06T23:04:35.271Z,2.57
2018-12-06T23:07:05.860Z,2.17
2018-12-06T23:09:35.223Z,1.67
2018-12-06T23:12:04.388Z,1.80
2018-12-06T23:14:33.518Z,2.23
2018-12-06T23:17:02.878Z,2.20
2018-12-06T23:19:32.089Z,2.60
2018-12-06T23:22:01.341Z,2.53
2018-12-06T23:24:30.499Z,2.40
2018-12-06T23:26:59.701Z,2.17
2018-12-06T23:29:28.865Z,2.23
2018-12-06T23:31:58.138Z,2.60
2018-12-06T23:34:27.280Z,2.17
2018-12-06T23:36:56.442Z,1.83
2018-12-06T23:39:25.588Z,2.00
2018-12-06T23:41:54.769Z,2.17
2018-12-06T23:44:23.962Z,2.40
2018-12-06T23:46:53.191Z,2.03
2018-12-06T23:49:22.412Z,1.90
2018-12-06T23:51:51.599Z,2.30
2018-12-06T23:54:20.799Z,2.03
2018-12-06T23:56:49.997Z,2.60
2018-12-06T23:59:19.123Z,1.80
